sensor_id;sensor_type;location;lat;lon;timestamp;pressure;altitude;pressure_sealevel;temperature;humidity
70930;BME280;58588;48.102;19.682;2023-09-30T00:02:32;99979.94;;;14.73;100.00
70930;BME280;58588;48.102;19.682;2023-09-30T00:05:34;99982.13;;;14.56;100.00
70930;BME280;58588;48.102;19.682;2023-09-30T00:08:36;99982.94;;;14.50;100.00
70930;BME280;58588;48.102;19.682;2023-09-30T00:11:39;99992.66;;;14.44;100.00
70930;BME280;58588;48.102;19.682;2023-09-30T00:14:41;100001.59;;;14.38;100.00
70930;BME280;58588;48.102;19.682;2023-09-30T00:17:45;99999.59;;;14.19;100.00
70930;BME280;58588;48.102;19.682;2023-09-30T00:20:46;99996.47;;;14.15;100.00
70930;BME280;58588;48.102;19.682;2023-09-30T00:23:48;99989.59;;;13.91;100.00
70930;BME280;58588;48.102;19.682;2023-09-30T00:26:50;99983.75;;;13.95;100.00
70930;BME280;58588;48.102;19.682;2023-09-30T00:29:53;99980.41;;;13.92;100.00
70930;BME280;58588;48.102;19.682;2023-09-30T00:32:56;99979.69;;;14.05;100.00
70930;BME280;58588;48.102;19.682;2023-09-30T00:35:58;99975.28;;;14.04;100.00
70930;BME280;58588;48.102;19.682;2023-09-30T00:39:00;99974.63;;;13.74;100.00
70930;BME280;58588;48.102;19.682;2023-09-30T00:42:02;99977.97;;;13.76;100.00
70930;BME280;58588;48.102;19.682;2023-09-30T00:45:06;99968.91;;;13.90;100.00
70930;BME280;58588;48.102;19.682;2023-09-30T00:48:11;99965.34;;;13.90;100.00
70930;BME280;58588;48.102;19.682;2023-09-30T00:51:13;99963.13;;;13.72;100.00
70930;BME280;58588;48.102;19.682;2023-09-30T00:54:15;99957.69;;;13.93;100.00
70930;BME280;58588;48.102;19.682;2023-09-30T00:57:20;99964.16;;;13.71;100.00
70930;BME280;58588;48.102;19.682;2023-09-30T01:00:22;99963.53;;;13.69;100.00
70930;BME280;58588;48.102;19.682;2023-09-30T01:03:27;99962.16;;;13.37;100.00
70930;BME280;58588;48.102;19.682;2023-09-30T01:06:29;99957.31;;;13.54;100.00
70930;BME280;58588;48.102;19.682;2023-09-30T01:09:31;99954.63;;;13.75;100.00
70930;BME280;58588;48.102;19.682;2023-09-30T01:12:34;99951.19;;;13.88;100.00
70930;BME280;58588;48.102;19.682;2023-09-30T01:15:36;99948.66;;;13.86;100.00
70930;BME280;58588;48.102;19.682;2023-09-30T01:18:40;99948.97;;;13.98;100.00
70930;BME280;58588;48.102;19.682;2023-09-30T01:21:44;99956.41;;;13.89;100.00
70930;BME280;58588;48.102;19.682;2023-09-30T01:24:48;99950.09;;;13.82;100.00
70930;BME280;58588;48.102;19.682;2023-09-30T01:27:50;99953.00;;;13.81;100.00
70930;BME280;58588;48.102;19.682;2023-09-30T01:30:52;99953.84;;;13.81;100.00
70930;BME280;58588;48.102;19.682;2023-09-30T01:33:54;99951.63;;;13.91;100.00
70930;BME280;58588;48.102;19.682;2023-09-30T01:36:57;99948.53;;;13.73;100.00
70930;BME280;58588;48.102;19.682;2023-09-30T01:40:00;99950.34;;;13.66;100.00
70930;BME280;58588;48.102;19.682;2023-09-30T01:43:02;99952.44;;;13.64;100.00
70930;BME280;58588;48.102;19.682;2023-09-30T01:46:04;99943.78;;;13.54;100.00
70930;BME280;58588;48.102;19.682;2023-09-30T01:49:06;99946.94;;;13.57;100.00
70930;BME280;58588;48.102;19.682;2023-09-30T01:52:10;99947.78;;;13.58;100.00
70930;BME280;58588;48.102;19.682;2023-09-30T01:55:11;99952.16;;;13.59;100.00
70930;BME280;58588;48.102;19.682;2023-09-30T01:58:13;99944.97;;;13.45;100.00
70930;BME280;58588;48.102;19.682;2023-09-30T02:01:15;99936.56;;;13.39;100.00
70930;BME280;58588;48.102;19.682;2023-09-30T02:04:17;99933.47;;;13.43;100.00
70930;BME280;58588;48.102;19.682;2023-09-30T02:07:21;99940.81;;;13.27;100.00
70930;BME280;58588;48.102;19.682;2023-09-30T02:10:23;99938.78;;;13.15;100.00
70930;BME280;58588;48.102;19.682;2023-09-30T02:13:24;99936.72;;;13.31;100.00
70930;BME280;58588;48.102;19.682;2023-09-30T02:16:26;99941.28;;;13.16;100.00
70930;BME280;58588;48.102;19.682;2023-09-30T02:19:28;99935.88;;;13.16;100.00
70930;BME280;58588;48.102;19.682;2023-09-30T02:22:34;99934.56;;;13.12;100.00
70930;BME280;58588;48.102;19.682;2023-09-30T02:25:36;99933.75;;;13.11;100.00
70930;BME280;58588;48.102;19.682;2023-09-30T02:28:38;99934.56;;;13.12;100.00
70930;BME280;58588;48.102;19.682;2023-09-30T02:31:40;99940.38;;;13.09;100.00
70930;BME280;58588;48.102;19.682;2023-09-30T02:34:43;99928.38;;;13.18;100.00
70930;BME280;58588;48.102;19.682;2023-09-30T02:37:46;99927.34;;;13.19;100.00
70930;BME280;58588;48.102;19.682;2023-09-30T02:40:48;99923.38;;;13.15;100.00
70930;BME280;58588;48.102;19.682;2023-09-30T02:43:51;99932.75;;;12.98;100.00
70930;BME280;58588;48.102;19.682;2023-09-30T02:46:53;99936.50;;;12.97;100.00
70930;BME280;58588;48.102;19.682;2023-09-30T02:49:56;99933.47;;;13.06;100.00
70930;BME280;58588;48.102;19.682;2023-09-30T02:53:00;99924.94;;;12.88;100.00
70930;BME280;58588;48.102;19.682;2023-09-30T02:56:02;99927.59;;;12.67;100.00
70930;BME280;58588;48.102;19.682;2023-09-30T02:59:04;99928.22;;;12.83;100.00
70930;BME280;58588;48.102;19.682;2023-09-30T03:02:07;99927.38;;;12.83;100.00
70930;BME280;58588;48.102;19.682;2023-09-30T03:05:09;99921.59;;;12.71;100.00
70930;BME280;58588;48.102;19.682;2023-09-30T03:08:15;99927.34;;;12.98;100.00
70930;BME280;58588;48.102;19.682;2023-09-30T03:11:17;99925.94;;;13.02;100.00
70930;BME280;58588;48.102;19.682;2023-09-30T03:14:20;99923.72;;;12.91;100.00
70930;BME280;58588;48.102;19.682;2023-09-30T03:17:22;99927.00;;;12.86;100.00
70930;BME280;58588;48.102;19.682;2023-09-30T03:20:25;99931.69;;;12.63;100.00
70930;BME280;58588;48.102;19.682;2023-09-30T03:23:29;99926.16;;;12.85;100.00
70930;BME280;58588;48.102;19.682;2023-09-30T03:26:32;99928.97;;;12.77;100.00
70930;BME280;58588;48.102;19.682;2023-09-30T03:29:35;99929.06;;;12.69;100.00
70930;BME280;58588;48.102;19.682;2023-09-30T03:32:38;99928.66;;;12.36;100.00
70930;BME280;58588;48.102;19.682;2023-09-30T03:35:40;99939.69;;;12.71;100.00
70930;BME280;58588;48.102;19.682;2023-09-30T03:38:44;99935.78;;;12.73;100.00
70930;BME280;58588;48.102;19.682;2023-09-30T03:41:46;99933.28;;;12.57;100.00
70930;BME280;58588;48.102;19.682;2023-09-30T03:44:47;99941.13;;;12.67;100.00
70930;BME280;58588;48.102;19.682;2023-09-30T03:47:49;99947.34;;;12.82;100.00
70930;BME280;58588;48.102;19.682;2023-09-30T03:50:52;99950.72;;;12.84;100.00
70930;BME280;58588;48.102;19.682;2023-09-30T03:53:55;99944.34;;;12.77;100.00
70930;BME280;58588;48.102;19.682;2023-09-30T03:56:57;99945.03;;;12.64;100.00
70930;BME280;58588;48.102;19.682;2023-09-30T04:00:00;99950.81;;;12.46;100.00
70930;BME280;58588;48.102;19.682;2023-09-30T04:03:06;99946.38;;;12.53;100.00
70930;BME280;58588;48.102;19.682;2023-09-30T04:06:08;99949.22;;;12.52;100.00
70930;BME280;58588;48.102;19.682;2023-09-30T04:09:11;99943.16;;;12.65;100.00
70930;BME280;58588;48.102;19.682;2023-09-30T04:12:13;99945.34;;;12.54;100.00
70930;BME280;58588;48.102;19.682;2023-09-30T04:15:15;99948.97;;;12.62;100.00
70930;BME280;58588;48.102;19.682;2023-09-30T04:18:17;99950.06;;;12.52;100.00
70930;BME280;58588;48.102;19.682;2023-09-30T04:21:21;99937.31;;;12.61;100.00
70930;BME280;58588;48.102;19.682;2023-09-30T04:24:24;99946.44;;;12.16;100.00
70930;BME280;58588;48.102;19.682;2023-09-30T04:27:26;99954.09;;;12.42;100.00
70930;BME280;58588;48.102;19.682;2023-09-30T04:30:28;99961.84;;;12.30;100.00
70930;BME280;58588;48.102;19.682;2023-09-30T04:33:33;99963.31;;;12.47;100.00
70930;BME280;58588;48.102;19.682;2023-09-30T04:36:36;99956.81;;;12.42;100.00
70930;BME280;58588;48.102;19.682;2023-09-30T04:39:39;99963.41;;;12.39;100.00
70930;BME280;58588;48.102;19.682;2023-09-30T04:42:42;99973.22;;;12.55;100.00
70930;BME280;58588;48.102;19.682;2023-09-30T04:45:44;99969.28;;;12.72;100.00
70930;BME280;58588;48.102;19.682;2023-09-30T04:48:47;99970.72;;;12.53;100.00
70930;BME280;58588;48.102;19.682;2023-09-30T04:51:49;99967.59;;;12.71;100.00
70930;BME280;58588;48.102;19.682;2023-09-30T04:54:52;99962.94;;;12.65;100.00
70930;BME280;58588;48.102;19.682;2023-09-30T04:57:58;99957.53;;;12.65;100.00
70930;BME280;58588;48.102;19.682;2023-09-30T05:01:03;99957.44;;;12.44;100.00
70930;BME280;58588;48.102;19.682;2023-09-30T05:04:09;99962.38;;;12.70;100.00
70930;BME280;58588;48.102;19.682;2023-09-30T05:07:11;99963.47;;;12.90;100.00
70930;BME280;58588;48.102;19.682;2023-09-30T05:10:15;99959.44;;;13.01;100.00
70930;BME280;58588;48.102;19.682;2023-09-30T05:13:17;99970.47;;;13.35;100.00
70930;BME280;58588;48.102;19.682;2023-09-30T05:16:19;99966.94;;;13.35;100.00
70930;BME280;58588;48.102;19.682;2023-09-30T05:19:21;99967.25;;;13.10;100.00
70930;BME280;58588;48.102;19.682;2023-09-30T05:22:23;99967.97;;;13.34;100.00
70930;BME280;58588;48.102;19.682;2023-09-30T05:25:27;99967.84;;;13.42;100.00
70930;BME280;58588;48.102;19.682;2023-09-30T05:28:29;99972.44;;;13.63;100.00
70930;BME280;58588;48.102;19.682;2023-09-30T05:31:32;99977.50;;;13.73;100.00
70930;BME280;58588;48.102;19.682;2023-09-30T05:34:34;99969.53;;;13.86;100.00
70930;BME280;58588;48.102;19.682;2023-09-30T05:37:35;99976.25;;;13.97;100.00
70930;BME280;58588;48.102;19.682;2023-09-30T05:40:39;99973.75;;;14.23;100.00
70930;BME280;58588;48.102;19.682;2023-09-30T05:43:42;99967.56;;;14.29;100.00
70930;BME280;58588;48.102;19.682;2023-09-30T05:46:44;99972.13;;;14.57;100.00
70930;BME280;58588;48.102;19.682;2023-09-30T05:49:46;99974.34;;;14.81;100.00
70930;BME280;58588;48.102;19.682;2023-09-30T05:52:48;99972.75;;;14.93;100.00
70930;BME280;58588;48.102;19.682;2023-09-30T05:55:52;99971.69;;;14.94;100.00
70930;BME280;58588;48.102;19.682;2023-09-30T05:58:54;99975.75;;;15.12;100.00
70930;BME280;58588;48.102;19.682;2023-09-30T06:01:56;99970.16;;;15.46;100.00
70930;BME280;58588;48.102;19.682;2023-09-30T06:04:58;99967.91;;;15.57;100.00
70930;BME280;58588;48.102;19.682;2023-09-30T06:08:03;99968.59;;;15.78;100.00
70930;BME280;58588;48.102;19.682;2023-09-30T06:11:17;99973.59;;;15.88;100.00
70930;BME280;58588;48.102;19.682;2023-09-30T06:14:19;99982.19;;;15.72;100.00
70930;BME280;58588;48.102;19.682;2023-09-30T06:17:23;99970.25;;;16.06;100.00
70930;BME280;58588;48.102;19.682;2023-09-30T06:20:26;99973.34;;;16.43;100.00
70930;BME280;58588;48.102;19.682;2023-09-30T06:23:31;99969.72;;;16.82;100.00
70930;BME280;58588;48.102;19.682;2023-09-30T06:26:34;99965.03;;;17.02;100.00
70930;BME280;58588;48.102;19.682;2023-09-30T06:29:36;99972.53;;;17.13;100.00
70930;BME280;58588;48.102;19.682;2023-09-30T06:32:38;99971.72;;;17.51;100.00
70930;BME280;58588;48.102;19.682;2023-09-30T06:35:41;99982.06;;;17.74;100.00
70930;BME280;58588;48.102;19.682;2023-09-30T06:38:50;99984.06;;;17.85;100.00
70930;BME280;58588;48.102;19.682;2023-09-30T06:41:54;99987.28;;;18.07;100.00
70930;BME280;58588;48.102;19.682;2023-09-30T06:44:56;99997.47;;;18.18;100.00
70930;BME280;58588;48.102;19.682;2023-09-30T06:47:57;99993.53;;;18.33;100.00
70930;BME280;58588;48.102;19.682;2023-09-30T06:50:59;99988.59;;;18.48;100.00
70930;BME280;58588;48.102;19.682;2023-09-30T06:54:04;99988.69;;;18.35;100.00
70930;BME280;58588;48.102;19.682;2023-09-30T06:57:09;99993.44;;;18.64;100.00
70930;BME280;58588;48.102;19.682;2023-09-30T07:00:12;99982.84;;;18.93;100.00
70930;BME280;58588;48.102;19.682;2023-09-30T07:03:15;99985.81;;;19.10;100.00
70930;BME280;58588;48.102;19.682;2023-09-30T07:06:22;99988.31;;;19.11;100.00
70930;BME280;58588;48.102;19.682;2023-09-30T07:09:24;99990.41;;;19.28;100.00
70930;BME280;58588;48.102;19.682;2023-09-30T07:12:28;99985.00;;;19.39;100.00
70930;BME280;58588;48.102;19.682;2023-09-30T07:15:31;99993.16;;;19.58;100.00
70930;BME280;58588;48.102;19.682;2023-09-30T07:18:33;99990.59;;;19.63;100.00
70930;BME280;58588;48.102;19.682;2023-09-30T07:21:35;99993.28;;;19.93;100.00
70930;BME280;58588;48.102;19.682;2023-09-30T07:24:38;99992.09;;;20.00;99.27
70930;BME280;58588;48.102;19.682;2023-09-30T07:27:42;100005.06;;;19.93;100.00
70930;BME280;58588;48.102;19.682;2023-09-30T07:30:45;100004.38;;;19.98;100.00
70930;BME280;58588;48.102;19.682;2023-09-30T07:33:47;100001.69;;;20.21;100.00
70930;BME280;58588;48.102;19.682;2023-09-30T07:36:49;100005.34;;;20.39;99.81
70930;BME280;58588;48.102;19.682;2023-09-30T07:39:50;100006.41;;;20.26;99.76
70930;BME280;58588;48.102;19.682;2023-09-30T07:42:54;99999.88;;;20.27;99.78
70930;BME280;58588;48.102;19.682;2023-09-30T07:45:56;99998.50;;;20.48;99.26
70930;BME280;58588;48.102;19.682;2023-09-30T07:48:58;99997.53;;;20.54;100.00
70930;BME280;58588;48.102;19.682;2023-09-30T07:52:00;100013.47;;;20.34;98.89
70930;BME280;58588;48.102;19.682;2023-09-30T07:55:04;100008.09;;;20.39;99.71
70930;BME280;58588;48.102;19.682;2023-09-30T07:58:08;100004.34;;;20.51;100.00
70930;BME280;58588;48.102;19.682;2023-09-30T08:01:10;99999.31;;;20.60;98.45
70930;BME280;58588;48.102;19.682;2023-09-30T08:04:11;100004.34;;;20.63;98.40
70930;BME280;58588;48.102;19.682;2023-09-30T08:07:13;99998.59;;;20.88;98.42
70930;BME280;58588;48.102;19.682;2023-09-30T08:10:15;100001.66;;;20.92;98.07
70930;BME280;58588;48.102;19.682;2023-09-30T08:13:19;100002.59;;;20.97;97.62
70930;BME280;58588;48.102;19.682;2023-09-30T08:16:21;99997.94;;;21.09;98.89
70930;BME280;58588;48.102;19.682;2023-09-30T08:19:22;100003.25;;;21.28;98.61
70930;BME280;58588;48.102;19.682;2023-09-30T08:22:24;100007.41;;;21.42;97.25
70930;BME280;58588;48.102;19.682;2023-09-30T08:25:28;100006.28;;;21.55;98.98
70930;BME280;58588;48.102;19.682;2023-09-30T08:28:32;100007.88;;;21.39;98.58
70930;BME280;58588;48.102;19.682;2023-09-30T08:31:33;100015.09;;;21.85;97.58
70930;BME280;58588;48.102;19.682;2023-09-30T08:34:35;100012.53;;;22.12;95.32
70930;BME280;58588;48.102;19.682;2023-09-30T08:37:37;100014.56;;;22.51;95.86
70930;BME280;58588;48.102;19.682;2023-09-30T08:40:39;100006.19;;;22.79;92.52
70930;BME280;58588;48.102;19.682;2023-09-30T08:43:44;99993.16;;;23.13;91.27
70930;BME280;58588;48.102;19.682;2023-09-30T08:46:46;99997.00;;;23.12;88.59
70930;BME280;58588;48.102;19.682;2023-09-30T08:49:50;99991.63;;;23.22;89.45
70930;BME280;58588;48.102;19.682;2023-09-30T08:52:57;99995.22;;;23.23;90.15
70930;BME280;58588;48.102;19.682;2023-09-30T08:55:59;99988.13;;;23.27;85.76
70930;BME280;58588;48.102;19.682;2023-09-30T08:59:06;99992.28;;;23.30;86.64
70930;BME280;58588;48.102;19.682;2023-09-30T09:02:08;99986.78;;;23.57;83.38
70930;BME280;58588;48.102;19.682;2023-09-30T09:05:11;99998.34;;;23.81;83.69
70930;BME280;58588;48.102;19.682;2023-09-30T09:08:13;99993.13;;;23.57;82.34
70930;BME280;58588;48.102;19.682;2023-09-30T09:11:15;99994.31;;;23.88;82.76
70930;BME280;58588;48.102;19.682;2023-09-30T09:14:19;100000.38;;;23.90;82.19
70930;BME280;58588;48.102;19.682;2023-09-30T09:17:21;100005.69;;;24.29;80.41
70930;BME280;58588;48.102;19.682;2023-09-30T09:20:24;100003.50;;;24.04;79.08
70930;BME280;58588;48.102;19.682;2023-09-30T09:23:26;100000.28;;;24.87;78.76
70930;BME280;58588;48.102;19.682;2023-09-30T09:26:35;100002.47;;;25.42;76.29
70930;BME280;58588;48.102;19.682;2023-09-30T09:29:40;100002.44;;;25.27;75.65
70930;BME280;58588;48.102;19.682;2023-09-30T09:32:53;100002.44;;;25.27;75.75
70930;BME280;58588;48.102;19.682;2023-09-30T09:35:55;99999.47;;;25.44;75.20
70930;BME280;58588;48.102;19.682;2023-09-30T09:38:57;99999.59;;;25.95;73.05
70930;BME280;58588;48.102;19.682;2023-09-30T09:41:59;99993.22;;;25.89;68.38
70930;BME280;58588;48.102;19.682;2023-09-30T09:45:04;99979.31;;;25.43;70.04
70930;BME280;58588;48.102;19.682;2023-09-30T09:48:06;99978.22;;;25.49;71.89
70930;BME280;58588;48.102;19.682;2023-09-30T09:51:09;99974.63;;;25.44;70.74
70930;BME280;58588;48.102;19.682;2023-09-30T09:54:14;99973.19;;;25.26;68.93
70930;BME280;58588;48.102;19.682;2023-09-30T09:57:17;99968.56;;;25.52;70.67
70930;BME280;58588;48.102;19.682;2023-09-30T10:00:22;99969.09;;;25.44;68.62
70930;BME280;58588;48.102;19.682;2023-09-30T10:03:24;99963.66;;;25.74;70.47
70930;BME280;58588;48.102;19.682;2023-09-30T10:06:28;99970.25;;;25.68;69.49
70930;BME280;58588;48.102;19.682;2023-09-30T10:09:30;99964.50;;;25.85;69.17
70930;BME280;58588;48.102;19.682;2023-09-30T10:12:36;99967.81;;;25.82;68.71
70930;BME280;58588;48.102;19.682;2023-09-30T10:15:40;99965.31;;;26.01;68.86
70930;BME280;58588;48.102;19.682;2023-09-30T10:19:09;99961.44;;;26.12;71.11
70930;BME280;58588;48.102;19.682;2023-09-30T10:22:21;99971.13;;;26.30;69.39
70930;BME280;58588;48.102;19.682;2023-09-30T10:25:34;99966.44;;;26.10;69.03
70930;BME280;58588;48.102;19.682;2023-09-30T10:28:37;99971.66;;;26.32;68.45
70930;BME280;58588;48.102;19.682;2023-09-30T10:31:53;99974.44;;;26.22;68.28
70930;BME280;58588;48.102;19.682;2023-09-30T10:34:55;99969.75;;;26.12;68.08
70930;BME280;58588;48.102;19.682;2023-09-30T10:41:50;99961.16;;;26.13;67.04
70930;BME280;58588;48.102;19.682;2023-09-30T10:44:52;99958.69;;;26.22;65.73
70930;BME280;58588;48.102;19.682;2023-09-30T10:47:55;99957.56;;;26.08;66.77
70930;BME280;58588;48.102;19.682;2023-09-30T10:50:58;99947.31;;;25.73;67.09
70930;BME280;58588;48.102;19.682;2023-09-30T10:54:04;99948.41;;;26.38;69.09
70930;BME280;58588;48.102;19.682;2023-09-30T10:57:06;99948.97;;;26.50;67.77
70930;BME280;58588;48.102;19.682;2023-09-30T11:00:25;99948.97;;;26.65;65.68
70930;BME280;58588;48.102;19.682;2023-09-30T11:03:31;99946.59;;;27.08;65.10
70930;BME280;58588;48.102;19.682;2023-09-30T11:06:40;99934.38;;;27.19;64.16
70930;BME280;58588;48.102;19.682;2023-09-30T11:09:45;99934.50;;;26.84;64.65
70930;BME280;58588;48.102;19.682;2023-09-30T11:12:54;99935.19;;;27.25;65.71
70930;BME280;58588;48.102;19.682;2023-09-30T11:16:03;99939.22;;;27.43;65.56
70930;BME280;58588;48.102;19.682;2023-09-30T11:19:07;99934.91;;;27.21;65.98
70930;BME280;58588;48.102;19.682;2023-09-30T11:22:09;99922.16;;;27.26;64.38
70930;BME280;58588;48.102;19.682;2023-09-30T11:25:15;99932.03;;;26.77;63.24
70930;BME280;58588;48.102;19.682;2023-09-30T11:28:18;99933.78;;;26.58;64.03
70930;BME280;58588;48.102;19.682;2023-09-30T11:31:22;99929.34;;;26.36;65.66
70930;BME280;58588;48.102;19.682;2023-09-30T11:34:33;99931.53;;;26.65;66.83
70930;BME280;58588;48.102;19.682;2023-09-30T11:37:36;99936.03;;;26.10;66.02
70930;BME280;58588;48.102;19.682;2023-09-30T11:40:38;99933.41;;;25.17;66.72
70930;BME280;58588;48.102;19.682;2023-09-30T11:43:58;99938.41;;;25.30;66.50
70930;BME280;58588;48.102;19.682;2023-09-30T11:47:01;99929.94;;;24.84;66.71
70930;BME280;58588;48.102;19.682;2023-09-30T11:50:07;99930.75;;;24.79;68.95
70930;BME280;58588;48.102;19.682;2023-09-30T11:53:15;99931.72;;;25.11;70.17
70930;BME280;58588;48.102;19.682;2023-09-30T11:56:17;99941.91;;;25.05;70.50
70930;BME280;58588;48.102;19.682;2023-09-30T11:59:19;99941.09;;;25.09;71.63
70930;BME280;58588;48.102;19.682;2023-09-30T12:02:27;99949.09;;;24.59;73.17
70930;BME280;58588;48.102;19.682;2023-09-30T12:05:35;99951.78;;;24.96;73.61
70930;BME280;58588;48.102;19.682;2023-09-30T12:08:38;99948.34;;;24.68;73.89
70930;BME280;58588;48.102;19.682;2023-09-30T12:11:41;99943.56;;;24.48;75.22
70930;BME280;58588;48.102;19.682;2023-09-30T12:14:44;99946.47;;;24.79;76.06
70930;BME280;58588;48.102;19.682;2023-09-30T12:17:46;99947.06;;;24.39;75.90
70930;BME280;58588;48.102;19.682;2023-09-30T12:20:49;99942.38;;;24.39;76.80
70930;BME280;58588;48.102;19.682;2023-09-30T12:23:53;99939.34;;;24.36;76.29
70930;BME280;58588;48.102;19.682;2023-09-30T12:26:54;99936.03;;;24.39;76.79
70930;BME280;58588;48.102;19.682;2023-09-30T12:29:56;99935.88;;;24.18;76.67
70930;BME280;58588;48.102;19.682;2023-09-30T12:32:58;99943.38;;;24.28;76.63
70930;BME280;58588;48.102;19.682;2023-09-30T12:36:02;99939.94;;;24.43;77.23
70930;BME280;58588;48.102;19.682;2023-09-30T12:39:04;99938.81;;;24.44;77.15
70930;BME280;58588;48.102;19.682;2023-09-30T12:42:11;99927.50;;;24.40;79.59
70930;BME280;58588;48.102;19.682;2023-09-30T12:45:13;99932.13;;;24.35;80.03
70930;BME280;58588;48.102;19.682;2023-09-30T12:48:15;99932.31;;;24.23;76.68
70930;BME280;58588;48.102;19.682;2023-09-30T12:51:19;99931.50;;;24.27;80.18
70930;BME280;58588;48.102;19.682;2023-09-30T12:54:21;99933.47;;;24.32;80.10
70930;BME280;58588;48.102;19.682;2023-09-30T12:57:23;99925.13;;;23.85;79.27
70930;BME280;58588;48.102;19.682;2023-09-30T13:00:26;99922.47;;;23.95;81.68
70930;BME280;58588;48.102;19.682;2023-09-30T13:03:31;99923.63;;;24.36;81.55
70930;BME280;58588;48.102;19.682;2023-09-30T13:06:34;99921.81;;;24.57;81.33
70930;BME280;58588;48.102;19.682;2023-09-30T13:09:36;99929.72;;;23.74;79.08
70930;BME280;58588;48.102;19.682;2023-09-30T13:12:39;99934.34;;;22.92;80.63
70930;BME280;58588;48.102;19.682;2023-09-30T13:15:40;99939.38;;;23.49;79.48
70930;BME280;58588;48.102;19.682;2023-09-30T13:18:42;99936.63;;;23.49;80.65
70930;BME280;58588;48.102;19.682;2023-09-30T13:21:46;99928.00;;;23.41;81.47
70930;BME280;58588;48.102;19.682;2023-09-30T13:24:48;99932.25;;;23.81;81.63
70930;BME280;58588;48.102;19.682;2023-09-30T13:27:50;99930.16;;;23.34;82.97
70930;BME280;58588;48.102;19.682;2023-09-30T13:30:51;99925.88;;;23.48;82.62
70930;BME280;58588;48.102;19.682;2023-09-30T13:33:53;99917.09;;;23.24;84.76
70930;BME280;58588;48.102;19.682;2023-09-30T13:36:57;99929.19;;;23.50;84.74
70930;BME280;58588;48.102;19.682;2023-09-30T13:39:59;99924.44;;;23.67;84.95
70930;BME280;58588;48.102;19.682;2023-09-30T13:43:04;99923.25;;;23.90;83.67
70930;BME280;58588;48.102;19.682;2023-09-30T13:46:06;99921.00;;;23.82;83.84
70930;BME280;58588;48.102;19.682;2023-09-30T13:49:08;99910.03;;;24.24;82.53
70930;BME280;58588;48.102;19.682;2023-09-30T13:52:11;99908.75;;;24.37;82.97
70930;BME280;58588;48.102;19.682;2023-09-30T13:55:13;99907.41;;;24.08;82.41
70930;BME280;58588;48.102;19.682;2023-09-30T13:58:19;99903.22;;;24.37;83.65
70930;BME280;58588;48.102;19.682;2023-09-30T14:01:21;99913.06;;;24.28;82.45
70930;BME280;58588;48.102;19.682;2023-09-30T14:04:22;99908.91;;;24.25;82.97
70930;BME280;58588;48.102;19.682;2023-09-30T14:07:26;99914.56;;;24.46;82.62
70930;BME280;58588;48.102;19.682;2023-09-30T14:10:28;99915.75;;;24.55;83.54
70930;BME280;58588;48.102;19.682;2023-09-30T14:13:30;99911.00;;;24.08;83.02
70930;BME280;58588;48.102;19.682;2023-09-30T14:16:32;99904.75;;;24.23;83.82
70930;BME280;58588;48.102;19.682;2023-09-30T14:19:34;99904.06;;;24.38;83.90
70930;BME280;58588;48.102;19.682;2023-09-30T14:22:38;99901.25;;;24.33;84.49
70930;BME280;58588;48.102;19.682;2023-09-30T14:25:40;99897.63;;;24.27;85.48
70930;BME280;58588;48.102;19.682;2023-09-30T14:28:42;99904.19;;;24.21;84.84
70930;BME280;58588;48.102;19.682;2023-09-30T14:31:45;99901.75;;;24.24;85.06
70930;BME280;58588;48.102;19.682;2023-09-30T14:34:47;99900.09;;;24.23;86.81
70930;BME280;58588;48.102;19.682;2023-09-30T14:37:50;99890.41;;;24.21;86.77
70930;BME280;58588;48.102;19.682;2023-09-30T14:40:54;99890.09;;;24.12;87.92
70930;BME280;58588;48.102;19.682;2023-09-30T14:43:56;99881.94;;;24.33;86.71
70930;BME280;58588;48.102;19.682;2023-09-30T14:46:58;99872.09;;;24.37;86.87
70930;BME280;58588;48.102;19.682;2023-09-30T14:50:00;99879.34;;;24.58;86.03
70930;BME280;58588;48.102;19.682;2023-09-30T14:53:04;99888.94;;;24.45;86.47
70930;BME280;58588;48.102;19.682;2023-09-30T14:56:14;99888.19;;;24.60;85.23
70930;BME280;58588;48.102;19.682;2023-09-30T14:59:17;99878.75;;;24.51;84.45
70930;BME280;58588;48.102;19.682;2023-09-30T15:02:19;99871.44;;;24.72;85.03
70930;BME280;58588;48.102;19.682;2023-09-30T15:05:21;99876.72;;;24.31;86.67
70930;BME280;58588;48.102;19.682;2023-09-30T15:08:25;99874.88;;;24.47;87.04
70930;BME280;58588;48.102;19.682;2023-09-30T15:11:27;99875.41;;;24.39;87.66
70930;BME280;58588;48.102;19.682;2023-09-30T15:14:29;99878.09;;;24.86;85.87
70930;BME280;58588;48.102;19.682;2023-09-30T15:17:31;99887.16;;;25.80;81.24
70930;BME280;58588;48.102;19.682;2023-09-30T15:20:37;99883.63;;;26.75;78.09
70930;BME280;58588;48.102;19.682;2023-09-30T15:23:42;99887.63;;;27.13;76.53
70930;BME280;58588;48.102;19.682;2023-09-30T15:26:44;99889.75;;;27.26;75.75
70930;BME280;58588;48.102;19.682;2023-09-30T15:29:46;99885.72;;;26.98;75.93
70930;BME280;58588;48.102;19.682;2023-09-30T15:32:48;99893.50;;;25.85;79.94
70930;BME280;58588;48.102;19.682;2023-09-30T15:35:50;99896.22;;;25.70;80.44
70930;BME280;58588;48.102;19.682;2023-09-30T15:38:54;99887.28;;;25.12;83.07
70930;BME280;58588;48.102;19.682;2023-09-30T15:41:56;99890.72;;;24.67;83.53
70930;BME280;58588;48.102;19.682;2023-09-30T15:44:58;99879.41;;;24.68;85.54
70930;BME280;58588;48.102;19.682;2023-09-30T15:48:00;99877.38;;;24.06;89.04
70930;BME280;58588;48.102;19.682;2023-09-30T15:51:02;99884.19;;;23.98;90.51
70930;BME280;58588;48.102;19.682;2023-09-30T15:54:06;99887.13;;;23.82;91.47
70930;BME280;58588;48.102;19.682;2023-09-30T15:57:08;99882.34;;;23.72;91.59